createdAt,value
2022-09-24T00:02:04.048Z,18.70
2022-09-24T00:04:32.203Z,18.30
2022-09-24T00:07:00.123Z,22.30
2022-09-24T00:09:28.069Z,20.70
2022-09-24T00:11:55.998Z,18.80
2022-09-24T00:14:24.415Z,18.50
2022-09-24T00:16:52.389Z,17.10
2022-09-24T00:19:20.285Z,18.90
2022-09-24T00:21:48.210Z,18.50
2022-09-24T00:24:36.112Z,17.50
2022-09-24T00:27:06.361Z,18.50
2022-09-24T00:29:36.024Z,17.50
2022-09-24T00:32:06.245Z,16.60
2022-09-24T00:34:34.570Z,16.90
2022-09-24T00:37:02.644Z,15.80
2022-09-24T00:39:30.578Z,15.30
2022-09-24T00:41:58.695Z,14.70
2022-09-24T00:44:48.380Z,14.20
2022-09-24T00:47:36.687Z,13.70
2022-09-24T00:50:08.254Z,13.20
2022-09-24T00:52:42.504Z,14.30
2022-09-24T00:55:12.060Z,14.30
2022-09-24T00:57:42.127Z,14.40
2022-09-24T01:00:11.112Z,13.60
2022-09-24T01:02:42.486Z,13.10
2022-09-24T01:05:10.392Z,12.30
2022-09-24T01:07:38.611Z,12.20
2022-09-24T01:10:06.986Z,11.60
2022-09-24T01:12:50.441Z,11.50
2022-09-24T01:15:32.114Z,11.80
2022-09-24T01:18:15.254Z,12.30
2022-09-24T01:21:02.871Z,11.70
2022-09-24T01:23:52.659Z,11.50
2022-09-24T01:26:48.183Z,12.40
2022-09-24T01:32:22.828Z,12.80
2022-09-24T01:34:58.169Z,12.00
2022-09-24T01:37:31.855Z,13.80
2022-09-24T01:40:01.722Z,12.50
2022-09-24T01:42:31.809Z,12.60
2022-09-24T01:45:02.626Z,13.00
2022-09-24T01:47:35.344Z,13.20
2022-09-24T01:50:04.872Z,13.50
2022-09-24T01:52:41.297Z,13.20
2022-09-24T01:55:16.070Z,14.80
2022-09-24T01:57:49.064Z,14.10
2022-09-24T02:00:22.123Z,12.90
2022-09-24T02:03:08.988Z,12.40
2022-09-24T02:05:44.582Z,12.70
2022-09-24T02:08:18.981Z,12.40
2022-09-24T02:11:06.285Z,12.00
2022-09-24T02:13:40.352Z,11.40
2022-09-24T02:16:15.163Z,11.70
2022-09-24T02:18:48.065Z,11.10
2022-09-24T02:21:19.511Z,11.70
2022-09-24T02:23:53.797Z,11.00
2022-09-24T02:26:22.210Z,12.40
2022-09-24T02:28:50.286Z,13.00
2022-09-24T02:31:27.415Z,12.50
2022-09-24T02:34:17.477Z,17.70
2022-09-24T02:36:45.606Z,12.80
2022-09-24T02:39:13.673Z,47.20
2022-09-24T02:41:47.626Z,55.30
2022-09-24T02:44:16.764Z,30.80
2022-09-24T02:46:45.968Z,28.50
2022-09-24T02:49:14.669Z,15.60
2022-09-24T02:51:43.998Z,12.50
2022-09-24T02:54:12.261Z,12.60
2022-09-24T02:56:40.441Z,15.60
2022-09-24T02:59:09.613Z,16.90
2022-09-24T03:01:37.622Z,14.00
2022-09-24T03:04:06.447Z,13.90
2022-09-24T03:06:34.926Z,13.40
2022-09-24T03:09:04.252Z,14.80
2022-09-24T03:11:33.331Z,14.50
2022-09-24T03:14:02.289Z,13.20
2022-09-24T03:16:30.434Z,12.70
2022-09-24T03:18:58.358Z,14.80
2022-09-24T03:21:26.520Z,16.00
2022-09-24T03:23:54.353Z,14.20
2022-09-24T03:26:22.323Z,13.60
2022-09-24T03:28:50.435Z,13.10
2022-09-24T03:31:18.821Z,13.80
2022-09-24T03:33:49.470Z,17.40
2022-09-24T03:36:21.052Z,15.20
2022-09-24T03:38:51.443Z,12.90
2022-09-24T03:41:19.529Z,13.80
2022-09-24T03:43:47.986Z,12.90
2022-09-24T03:46:17.456Z,12.80
2022-09-24T03:48:47.470Z,12.30
2022-09-24T03:51:18.926Z,11.00
2022-09-24T03:53:48.712Z,11.70
2022-09-24T03:56:16.856Z,11.20
2022-09-24T03:58:48.210Z,11.80
2022-09-24T04:01:21.687Z,12.00
2022-09-24T04:03:50.861Z,10.90
2022-09-24T04:06:24.883Z,11.70
2022-09-24T04:08:54.410Z,11.80
2022-09-24T04:11:24.149Z,11.50
2022-09-24T04:13:52.484Z,11.50
2022-09-24T04:16:20.549Z,11.20
2022-09-24T04:18:48.976Z,11.70
2022-09-24T04:21:18.436Z,13.30
2022-09-24T04:23:46.653Z,12.00
2022-09-24T04:26:15.357Z,11.60
2022-09-24T04:28:43.459Z,11.70
2022-09-24T04:31:11.381Z,11.90
2022-09-24T04:33:39.316Z,12.70
2022-09-24T04:36:07.282Z,13.00
2022-09-24T04:38:35.167Z,12.80
2022-09-24T04:41:07.933Z,12.80
2022-09-24T04:43:37.193Z,15.10
2022-09-24T04:46:06.856Z,13.30
2022-09-24T04:48:36.477Z,13.10
2022-09-24T04:51:08.849Z,13.30
2022-09-24T04:53:37.523Z,14.50
2022-09-24T04:56:12.209Z,13.90
2022-09-24T04:58:40.686Z,13.70
2022-09-24T05:01:09.490Z,12.50
2022-09-24T05:03:37.405Z,12.60
2022-09-24T05:06:05.430Z,12.80
2022-09-24T05:08:33.341Z,11.90
2022-09-24T05:11:02.549Z,11.80
2022-09-24T05:13:30.717Z,11.00
2022-09-24T05:16:01.176Z,11.10
2022-09-24T05:18:29.456Z,12.10
2022-09-24T05:20:57.877Z,11.70
2022-09-24T05:23:25.835Z,11.20
2022-09-24T05:26:12.374Z,10.90
2022-09-24T05:28:40.658Z,10.60
2022-09-24T05:31:09.312Z,10.70
2022-09-24T05:33:38.064Z,11.50
2022-09-24T05:36:06.255Z,12.10
2022-09-24T05:38:34.199Z,11.50
2022-09-24T05:41:02.114Z,16.00
2022-09-24T05:43:31.871Z,20.20
2022-09-24T05:46:00.027Z,25.60
2022-09-24T05:48:28.369Z,26.30
2022-09-24T05:50:56.582Z,28.20
2022-09-24T05:53:24.530Z,27.10
2022-09-24T05:55:52.887Z,32.30
2022-09-24T05:58:20.803Z,30.00
2022-09-24T06:00:49.376Z,29.40
2022-09-24T06:03:19.008Z,27.50
2022-09-24T06:05:49.953Z,24.50
2022-09-24T06:08:19.625Z,20.40
2022-09-24T06:10:48.716Z,17.70
2022-09-24T06:13:20.989Z,15.00
2022-09-24T06:15:48.955Z,13.90
2022-09-24T06:18:17.243Z,12.80
2022-09-24T06:20:47.154Z,11.10
2022-09-24T06:23:15.098Z,12.30
2022-09-24T06:25:43.522Z,11.10
2022-09-24T06:28:11.478Z,11.50
2022-09-24T06:30:39.959Z,10.90
2022-09-24T06:33:10.848Z,11.40
2022-09-24T06:35:41.045Z,11.50
2022-09-24T06:38:12.179Z,11.70
2022-09-24T06:40:41.523Z,11.00
2022-09-24T06:43:11.515Z,11.50
2022-09-24T06:45:42.954Z,10.90
2022-09-24T06:48:12.925Z,10.90
2022-09-24T06:50:43.457Z,10.30
2022-09-24T06:53:12.401Z,10.40
2022-09-24T06:55:40.839Z,9.60
2022-09-24T06:58:15.078Z,10.00
2022-09-24T07:00:43.716Z,10.30
2022-09-24T07:03:16.787Z,10.00
2022-09-24T07:05:44.723Z,10.20
2022-09-24T07:08:12.946Z,9.70
2022-09-24T07:10:46.737Z,10.10
2022-09-24T07:13:15.790Z,9.60
2022-09-24T07:15:44.531Z,9.10
2022-09-24T07:18:13.101Z,9.40
2022-09-24T07:20:41.978Z,9.80
2022-09-24T07:23:12.100Z,10.50
2022-09-24T07:25:40.221Z,10.50
2022-09-24T07:28:11.221Z,10.20
2022-09-24T07:30:39.976Z,11.10
2022-09-24T07:33:08.457Z,11.00
2022-09-24T07:35:40.591Z,11.60
2022-09-24T07:38:14.325Z,10.50
2022-09-24T07:40:42.547Z,9.80
2022-09-24T07:43:14.003Z,10.40
2022-09-24T07:45:43.095Z,9.50
2022-09-24T07:48:13.003Z,9.30
2022-09-24T07:50:42.785Z,9.30
2022-09-24T07:53:12.754Z,9.20
2022-09-24T07:55:42.026Z,8.80
2022-09-24T07:58:14.427Z,9.60
2022-09-24T08:00:42.979Z,9.40
2022-09-24T08:03:11.014Z,9.10
2022-09-24T08:05:45.743Z,8.90
2022-09-24T08:08:15.021Z,8.80
2022-09-24T08:10:43.632Z,8.60
2022-09-24T08:13:12.254Z,8.80
2022-09-24T08:15:41.006Z,8.00
2022-09-24T08:18:09.790Z,8.50
2022-09-24T08:20:39.382Z,7.80
2022-09-24T08:23:12.926Z,8.80
2022-09-24T08:25:40.873Z,8.20
2022-09-24T08:28:12.367Z,8.40
2022-09-24T08:30:40.601Z,8.90
2022-09-24T08:33:09.421Z,7.90
2022-09-24T08:35:40.281Z,8.50
2022-09-24T08:38:09.327Z,8.40
2022-09-24T08:40:47.115Z,8.80
2022-09-24T08:43:23.870Z,9.00
2022-09-24T08:46:18.907Z,8.00
2022-09-24T08:48:51.850Z,8.00
2022-09-24T08:51:22.803Z,7.80
2022-09-24T08:54:05.731Z,8.30
2022-09-24T08:56:37.475Z,8.10
2022-09-24T08:59:24.342Z,7.70
2022-09-24T09:02:21.214Z,8.10
2022-09-24T09:04:58.369Z,7.40
2022-09-24T09:07:32.368Z,7.40
2022-09-24T09:10:29.231Z,8.10
2022-09-24T09:13:20.847Z,8.00
2022-09-24T09:15:57.711Z,7.50
2022-09-24T09:18:33.281Z,7.60
2022-09-24T09:21:18.016Z,7.20
2022-09-24T09:23:51.260Z,7.70
2022-09-24T09:26:20.712Z,6.40
2022-09-24T09:28:49.407Z,6.50
2022-09-24T09:31:46.106Z,6.70
2022-09-24T09:35:10.406Z,6.70
2022-09-24T09:39:09.516Z,6.40
2022-09-24T09:47:27.570Z,6.20
2022-09-24T09:51:25.496Z,5.40
2022-09-24T10:02:44.457Z,4.20
2022-09-24T10:14:29.744Z,3.60
2022-09-24T10:26:04.118Z,5.00
2022-09-24T10:29:51.432Z,7.90
2022-09-24T10:41:38.955Z,2.80
2022-09-24T10:45:15.893Z,3.20
2022-09-24T10:57:28.771Z,4.20
2022-09-24T11:01:20.142Z,3.30
2022-09-24T11:13:40.859Z,3.60
2022-09-24T11:17:28.181Z,4.70
2022-09-24T11:29:17.598Z,3.80
2022-09-24T11:33:08.061Z,3.30
2022-09-24T11:46:11.601Z,2.60
2022-09-24T11:58:35.395Z,3.80
2022-09-24T12:02:16.778Z,5.40
2022-09-24T12:14:26.650Z,4.50
2022-09-24T12:18:04.736Z,3.20
2022-09-24T12:21:41.125Z,6.30
2022-09-24T12:33:53.621Z,3.00
2022-09-24T12:45:25.052Z,2.60
2022-09-24T12:49:14.218Z,5.50
2022-09-24T12:57:13.879Z,3.30
2022-09-24T13:12:43.071Z,3.60
2022-09-24T13:16:29.217Z,2.80
2022-09-24T13:28:39.299Z,2.90
2022-09-24T13:32:33.490Z,2.90
2022-09-24T13:40:47.247Z,9.10
2022-09-24T13:44:34.590Z,4.20
2022-09-24T13:55:56.961Z,6.20
2022-09-24T13:59:46.024Z,5.60
2022-09-24T14:11:29.425Z,7.50
2022-09-24T14:15:09.246Z,9.80
2022-09-24T14:26:57.819Z,3.60
2022-09-24T14:42:04.039Z,6.40
2022-09-24T14:45:46.907Z,9.70
2022-09-24T15:00:40.131Z,3.60
2022-09-24T15:04:20.734Z,3.60
2022-09-24T15:19:37.354Z,4.20
2022-09-24T15:23:16.774Z,4.70
2022-09-24T15:40:56.624Z,3.70
2022-09-24T15:56:00.643Z,4.10
2022-09-24T15:59:51.252Z,4.00
2022-09-24T16:11:27.095Z,9.20
2022-09-24T16:14:59.622Z,3.80
2022-09-24T16:26:17.495Z,3.90
2022-09-24T16:38:12.955Z,4.50
2022-09-24T16:56:25.797Z,5.40
2022-09-24T17:00:05.119Z,3.60
2022-09-24T17:04:23.373Z,4.30
2022-09-24T17:08:12.239Z,4.10
2022-09-24T17:16:10.431Z,12.10
2022-09-24T17:19:01.929Z,8.20
2022-09-24T17:30:24.985Z,5.00
2022-09-24T17:45:31.119Z,6.30
2022-09-24T17:49:13.373Z,6.00
2022-09-24T18:00:57.137Z,16.40
2022-09-24T18:12:19.880Z,19.10
2022-09-24T18:15:11.671Z,14.00
2022-09-24T18:19:02.384Z,11.80
2022-09-24T18:30:33.498Z,17.20
2022-09-24T18:42:13.778Z,23.30
2022-09-24T18:45:35.496Z,43.50
2022-09-24T18:57:06.980Z,68.90
2022-09-24T19:01:11.399Z,79.80
2022-09-24T19:09:14.034Z,36.50
2022-09-24T19:21:01.088Z,37.80
2022-09-24T19:32:23.134Z,36.50
2022-09-24T19:36:12.141Z,38.30
2022-09-24T19:47:58.351Z,48.60
2022-09-24T19:55:44.211Z,54.10
2022-09-24T20:09:34.520Z,50.20
2022-09-24T20:13:06.234Z,48.80
2022-09-24T20:18:27.328Z,41.80
2022-09-24T20:20:55.747Z,39.70
2022-09-24T20:23:24.282Z,39.50
2022-09-24T20:26:12.448Z,38.50
2022-09-24T20:28:40.779Z,37.20
2022-09-24T20:31:11.378Z,37.70
2022-09-24T20:33:42.739Z,39.20
2022-09-24T20:36:16.532Z,43.60
2022-09-24T20:38:48.329Z,41.30
2022-09-24T20:41:19.585Z,40.70
2022-09-24T20:43:47.623Z,38.30
2022-09-24T20:46:24.403Z,35.80
2022-09-24T20:48:54.190Z,37.10
2022-09-24T20:51:22.176Z,37.60
2022-09-24T20:53:50.583Z,39.90
2022-09-24T20:56:19.041Z,37.20
2022-09-24T20:58:51.240Z,38.40
2022-09-24T21:01:21.447Z,39.10
2022-09-24T21:03:50.495Z,39.50
2022-09-24T21:06:23.730Z,40.70
2022-09-24T21:08:53.042Z,41.40
2022-09-24T21:11:26.813Z,42.50
2022-09-24T21:14:01.587Z,42.40
2022-09-24T21:16:34.970Z,46.10
2022-09-24T21:19:06.091Z,45.50
2022-09-24T21:21:39.140Z,45.10
2022-09-24T21:24:14.107Z,42.70
2022-09-24T21:26:45.360Z,40.20
2022-09-24T21:29:18.248Z,36.40
2022-09-24T21:31:48.003Z,33.70
2022-09-24T22:28:50.134Z,27.50
2022-09-24T22:32:39.207Z,27.90
2022-09-24T22:44:14.947Z,49.20
2022-09-24T22:56:21.685Z,34.10
2022-09-24T23:00:10.706Z,39.30
2022-09-24T23:11:54.336Z,37.10
2022-09-24T23:19:34.527Z,32.50
2022-09-24T23:23:31.632Z,33.90
2022-09-24T23:31:31.448Z,31.10
2022-09-24T23:43:09.978Z,30.90
2022-09-24T23:54:40.913Z,24.50
